sensor_id;sensor_type;location;lat;lon;timestamp;P1;durP1;ratioP1;P2;durP2;ratioP2
20154;SDS011;10238;49.556;10.956;2023-11-21T00:02:43;1.58;;;1.48;;
20154;SDS011;10238;49.556;10.956;2023-11-21T00:05:32;2.05;;;1.60;;
20154;SDS011;10238;49.556;10.956;2023-11-21T00:08:20;2.08;;;1.92;;
20154;SDS011;10238;49.556;10.956;2023-11-21T00:11:09;1.85;;;1.52;;
20154;SDS011;10238;49.556;10.956;2023-11-21T00:13:57;5.75;;;2.90;;
20154;SDS011;10238;49.556;10.956;2023-11-21T00:16:44;4.05;;;1.70;;
20154;SDS011;10238;49.556;10.956;2023-11-21T00:19:32;4.50;;;1.98;;
20154;SDS011;10238;49.556;10.956;2023-11-21T00:22:21;1.88;;;1.30;;
20154;SDS011;10238;49.556;10.956;2023-11-21T00:25:08;3.38;;;2.40;;
20154;SDS011;10238;49.556;10.956;2023-11-21T00:27:58;2.60;;;1.50;;
20154;SDS011;10238;49.556;10.956;2023-11-21T00:30:47;4.10;;;1.83;;
20154;SDS011;10238;49.556;10.956;2023-11-21T00:33:34;2.63;;;1.40;;
20154;SDS011;10238;49.556;10.956;2023-11-21T00:36:22;2.08;;;1.42;;
20154;SDS011;10238;49.556;10.956;2023-11-21T00:39:11;3.55;;;1.58;;
20154;SDS011;10238;49.556;10.956;2023-11-21T00:41:59;2.42;;;1.55;;
20154;SDS011;10238;49.556;10.956;2023-11-21T00:44:48;2.70;;;1.52;;
20154;SDS011;10238;49.556;10.956;2023-11-21T00:47:36;2.55;;;1.75;;
20154;SDS011;10238;49.556;10.956;2023-11-21T00:50:24;2.22;;;1.50;;
20154;SDS011;10238;49.556;10.956;2023-11-21T00:53:13;3.20;;;1.40;;
20154;SDS011;10238;49.556;10.956;2023-11-21T00:56:01;1.75;;;1.20;;
20154;SDS011;10238;49.556;10.956;2023-11-21T00:58:51;2.45;;;1.50;;
20154;SDS011;10238;49.556;10.956;2023-11-21T01:01:40;3.53;;;2.03;;
20154;SDS011;10238;49.556;10.956;2023-11-21T01:04:28;1.88;;;1.63;;
20154;SDS011;10238;49.556;10.956;2023-11-21T01:07:17;2.03;;;1.50;;
20154;SDS011;10238;49.556;10.956;2023-11-21T01:10:07;2.05;;;1.45;;
20154;SDS011;10238;49.556;10.956;2023-11-21T01:12:56;2.20;;;1.55;;
20154;SDS011;10238;49.556;10.956;2023-11-21T01:15:43;1.92;;;1.50;;
20154;SDS011;10238;49.556;10.956;2023-11-21T01:18:33;1.30;;;1.20;;
20154;SDS011;10238;49.556;10.956;2023-11-21T01:21:21;1.77;;;1.35;;
20154;SDS011;10238;49.556;10.956;2023-11-21T01:24:09;1.88;;;1.40;;
20154;SDS011;10238;49.556;10.956;2023-11-21T01:26:56;2.08;;;1.58;;
20154;SDS011;10238;49.556;10.956;2023-11-21T01:29:44;1.95;;;1.70;;
20154;SDS011;10238;49.556;10.956;2023-11-21T01:32:31;1.63;;;1.52;;
20154;SDS011;10238;49.556;10.956;2023-11-21T01:35:21;1.85;;;1.50;;
20154;SDS011;10238;49.556;10.956;2023-11-21T01:38:08;5.38;;;2.28;;
20154;SDS011;10238;49.556;10.956;2023-11-21T01:40:56;3.65;;;1.67;;
20154;SDS011;10238;49.556;10.956;2023-11-21T01:43:46;1.38;;;1.30;;
20154;SDS011;10238;49.556;10.956;2023-11-21T01:46:34;1.98;;;1.50;;
20154;SDS011;10238;49.556;10.956;2023-11-21T01:49:23;2.53;;;1.60;;
20154;SDS011;10238;49.556;10.956;2023-11-21T01:52:12;1.55;;;1.50;;
20154;SDS011;10238;49.556;10.956;2023-11-21T01:55:00;2.90;;;1.70;;
20154;SDS011;10238;49.556;10.956;2023-11-21T01:57:49;3.28;;;1.85;;
20154;SDS011;10238;49.556;10.956;2023-11-21T02:00:37;4.47;;;2.03;;
20154;SDS011;10238;49.556;10.956;2023-11-21T02:03:25;3.70;;;2.53;;
20154;SDS011;10238;49.556;10.956;2023-11-21T02:06:13;3.15;;;1.83;;
20154;SDS011;10238;49.556;10.956;2023-11-21T02:09:02;2.65;;;1.80;;
20154;SDS011;10238;49.556;10.956;2023-11-21T02:11:50;2.13;;;1.70;;
20154;SDS011;10238;49.556;10.956;2023-11-21T02:14:43;2.40;;;1.90;;
20154;SDS011;10238;49.556;10.956;2023-11-21T02:17:31;3.72;;;1.83;;
20154;SDS011;10238;49.556;10.956;2023-11-21T02:20:19;3.35;;;1.60;;
20154;SDS011;10238;49.556;10.956;2023-11-21T02:23:12;2.80;;;1.52;;
20154;SDS011;10238;49.556;10.956;2023-11-21T02:26:00;1.60;;;1.45;;
20154;SDS011;10238;49.556;10.956;2023-11-21T02:28:50;2.10;;;1.58;;
20154;SDS011;10238;49.556;10.956;2023-11-21T02:31:39;2.50;;;1.75;;
20154;SDS011;10238;49.556;10.956;2023-11-21T02:34:33;2.03;;;1.80;;
20154;SDS011;10238;49.556;10.956;2023-11-21T02:37:21;3.20;;;1.90;;
20154;SDS011;10238;49.556;10.956;2023-11-21T02:40:10;3.03;;;2.20;;
20154;SDS011;10238;49.556;10.956;2023-11-21T02:42:59;2.75;;;1.50;;
20154;SDS011;10238;49.556;10.956;2023-11-21T02:45:47;2.15;;;1.58;;
20154;SDS011;10238;49.556;10.956;2023-11-21T02:48:34;1.60;;;1.50;;
20154;SDS011;10238;49.556;10.956;2023-11-21T02:51:22;1.70;;;1.40;;
20154;SDS011;10238;49.556;10.956;2023-11-21T02:54:09;1.50;;;1.40;;
20154;SDS011;10238;49.556;10.956;2023-11-21T02:56:59;3.08;;;1.83;;
20154;SDS011;10238;49.556;10.956;2023-11-21T02:59:48;1.73;;;1.40;;
20154;SDS011;10238;49.556;10.956;2023-11-21T03:02:35;3.92;;;1.63;;
20154;SDS011;10238;49.556;10.956;2023-11-21T03:05:25;1.50;;;1.40;;
20154;SDS011;10238;49.556;10.956;2023-11-21T03:08:14;2.08;;;1.60;;
20154;SDS011;10238;49.556;10.956;2023-11-21T03:11:02;2.25;;;1.80;;
20154;SDS011;10238;49.556;10.956;2023-11-21T03:13:51;3.95;;;1.75;;
20154;SDS011;10238;49.556;10.956;2023-11-21T03:16:38;1.67;;;1.52;;
20154;SDS011;10238;49.556;10.956;2023-11-21T03:19:26;2.50;;;1.98;;
20154;SDS011;10238;49.556;10.956;2023-11-21T03:22:14;6.40;;;3.50;;
20154;SDS011;10238;49.556;10.956;2023-11-21T03:25:02;3.65;;;1.60;;
20154;SDS011;10238;49.556;10.956;2023-11-21T03:27:50;2.42;;;1.80;;
20154;SDS011;10238;49.556;10.956;2023-11-21T03:30:40;1.42;;;1.33;;
20154;SDS011;10238;49.556;10.956;2023-11-21T03:33:28;2.58;;;1.65;;
20154;SDS011;10238;49.556;10.956;2023-11-21T03:36:15;2.35;;;1.70;;
20154;SDS011;10238;49.556;10.956;2023-11-21T03:39:03;2.15;;;1.95;;
20154;SDS011;10238;49.556;10.956;2023-11-21T03:41:52;2.90;;;1.73;;
20154;SDS011;10238;49.556;10.956;2023-11-21T03:44:40;2.58;;;2.20;;
20154;SDS011;10238;49.556;10.956;2023-11-21T03:47:29;3.10;;;2.10;;
20154;SDS011;10238;49.556;10.956;2023-11-21T03:50:17;3.33;;;2.10;;
20154;SDS011;10238;49.556;10.956;2023-11-21T03:53:05;4.85;;;1.80;;
20154;SDS011;10238;49.556;10.956;2023-11-21T03:55:52;2.90;;;2.08;;
20154;SDS011;10238;49.556;10.956;2023-11-21T03:58:40;3.75;;;1.90;;
20154;SDS011;10238;49.556;10.956;2023-11-21T04:01:28;3.20;;;2.28;;
20154;SDS011;10238;49.556;10.956;2023-11-21T04:04:18;1.85;;;1.70;;
20154;SDS011;10238;49.556;10.956;2023-11-21T04:07:06;3.85;;;2.03;;
20154;SDS011;10238;49.556;10.956;2023-11-21T04:09:53;3.40;;;1.92;;
20154;SDS011;10238;49.556;10.956;2023-11-21T04:12:41;2.90;;;1.85;;
20154;SDS011;10238;49.556;10.956;2023-11-21T04:15:29;3.65;;;2.03;;
20154;SDS011;10238;49.556;10.956;2023-11-21T04:18:16;3.03;;;1.80;;
20154;SDS011;10238;49.556;10.956;2023-11-21T04:21:06;3.55;;;2.50;;
20154;SDS011;10238;49.556;10.956;2023-11-21T04:23:54;3.70;;;2.25;;
20154;SDS011;10238;49.556;10.956;2023-11-21T04:26:41;5.20;;;2.17;;
20154;SDS011;10238;49.556;10.956;2023-11-21T04:29:30;2.72;;;1.70;;
20154;SDS011;10238;49.556;10.956;2023-11-21T04:32:17;2.97;;;2.03;;
20154;SDS011;10238;49.556;10.956;2023-11-21T04:35:05;1.73;;;1.40;;
20154;SDS011;10238;49.556;10.956;2023-11-21T04:37:56;2.85;;;1.70;;
20154;SDS011;10238;49.556;10.956;2023-11-21T04:40:44;2.67;;;1.85;;
20154;SDS011;10238;49.556;10.956;2023-11-21T04:43:32;1.98;;;1.80;;
20154;SDS011;10238;49.556;10.956;2023-11-21T04:46:20;5.78;;;2.53;;
20154;SDS011;10238;49.556;10.956;2023-11-21T04:49:08;2.00;;;1.80;;
20154;SDS011;10238;49.556;10.956;2023-11-21T04:51:56;3.28;;;2.30;;
20154;SDS011;10238;49.556;10.956;2023-11-21T04:54:45;2.03;;;1.65;;
20154;SDS011;10238;49.556;10.956;2023-11-21T04:57:34;2.78;;;2.00;;
20154;SDS011;10238;49.556;10.956;2023-11-21T05:00:21;4.80;;;1.95;;
20154;SDS011;10238;49.556;10.956;2023-11-21T05:03:09;1.70;;;1.60;;
20154;SDS011;10238;49.556;10.956;2023-11-21T05:05:59;2.15;;;2.05;;
20154;SDS011;10238;49.556;10.956;2023-11-21T05:08:47;1.95;;;1.73;;
20154;SDS011;10238;49.556;10.956;2023-11-21T05:11:36;2.33;;;1.80;;
20154;SDS011;10238;49.556;10.956;2023-11-21T05:14:23;2.15;;;1.63;;
20154;SDS011;10238;49.556;10.956;2023-11-21T05:17:12;1.50;;;1.40;;
20154;SDS011;10238;49.556;10.956;2023-11-21T05:20:00;1.73;;;1.50;;
20154;SDS011;10238;49.556;10.956;2023-11-21T05:22:50;3.50;;;2.15;;
20154;SDS011;10238;49.556;10.956;2023-11-21T05:25:38;2.80;;;1.80;;
20154;SDS011;10238;49.556;10.956;2023-11-21T05:28:28;2.97;;;1.83;;
20154;SDS011;10238;49.556;10.956;2023-11-21T05:31:16;1.75;;;1.65;;
20154;SDS011;10238;49.556;10.956;2023-11-21T05:34:04;2.22;;;1.85;;
20154;SDS011;10238;49.556;10.956;2023-11-21T05:36:52;2.20;;;1.73;;
20154;SDS011;10238;49.556;10.956;2023-11-21T05:39:39;3.03;;;1.92;;
20154;SDS011;10238;49.556;10.956;2023-11-21T05:42:27;2.25;;;2.05;;
20154;SDS011;10238;49.556;10.956;2023-11-21T05:45:18;2.17;;;1.98;;
20154;SDS011;10238;49.556;10.956;2023-11-21T05:48:06;2.92;;;2.20;;
20154;SDS011;10238;49.556;10.956;2023-11-21T05:50:54;3.17;;;1.80;;
20154;SDS011;10238;49.556;10.956;2023-11-21T05:53:41;2.08;;;1.98;;
20154;SDS011;10238;49.556;10.956;2023-11-21T05:56:29;2.25;;;1.83;;
20154;SDS011;10238;49.556;10.956;2023-11-21T05:59:16;3.72;;;2.22;;
20154;SDS011;10238;49.556;10.956;2023-11-21T06:02:09;2.17;;;2.00;;
20154;SDS011;10238;49.556;10.956;2023-11-21T06:04:57;2.40;;;2.00;;
20154;SDS011;10238;49.556;10.956;2023-11-21T06:07:44;4.88;;;2.40;;
20154;SDS011;10238;49.556;10.956;2023-11-21T06:10:32;3.67;;;2.30;;
20154;SDS011;10238;49.556;10.956;2023-11-21T06:13:20;2.55;;;2.25;;
20154;SDS011;10238;49.556;10.956;2023-11-21T06:16:10;5.03;;;1.80;;
20154;SDS011;10238;49.556;10.956;2023-11-21T06:19:01;2.67;;;2.05;;
20154;SDS011;10238;49.556;10.956;2023-11-21T06:21:49;2.03;;;1.80;;
20154;SDS011;10238;49.556;10.956;2023-11-21T06:24:36;2.50;;;2.30;;
20154;SDS011;10238;49.556;10.956;2023-11-21T06:27:24;2.20;;;2.00;;
20154;SDS011;10238;49.556;10.956;2023-11-21T06:30:12;1.88;;;1.77;;
20154;SDS011;10238;49.556;10.956;2023-11-21T06:33:01;1.85;;;1.75;;
20154;SDS011;10238;49.556;10.956;2023-11-21T06:35:50;2.55;;;2.00;;
20154;SDS011;10238;49.556;10.956;2023-11-21T06:38:38;2.50;;;2.30;;
20154;SDS011;10238;49.556;10.956;2023-11-21T06:41:26;2.40;;;2.08;;
20154;SDS011;10238;49.556;10.956;2023-11-21T06:44:13;3.22;;;2.05;;
20154;SDS011;10238;49.556;10.956;2023-11-21T06:47:01;3.05;;;2.05;;
20154;SDS011;10238;49.556;10.956;2023-11-21T06:49:49;3.53;;;2.28;;
20154;SDS011;10238;49.556;10.956;2023-11-21T06:52:39;3.33;;;2.65;;
20154;SDS011;10238;49.556;10.956;2023-11-21T06:55:26;2.38;;;2.17;;
20154;SDS011;10238;49.556;10.956;2023-11-21T06:58:14;3.13;;;2.35;;
20154;SDS011;10238;49.556;10.956;2023-11-21T07:01:02;2.75;;;2.10;;
20154;SDS011;10238;49.556;10.956;2023-11-21T07:03:51;4.78;;;2.22;;
20154;SDS011;10238;49.556;10.956;2023-11-21T07:06:39;3.80;;;2.45;;
20154;SDS011;10238;49.556;10.956;2023-11-21T07:09:28;5.60;;;2.28;;
20154;SDS011;10238;49.556;10.956;2023-11-21T07:12:17;5.57;;;3.08;;
20154;SDS011;10238;49.556;10.956;2023-11-21T07:15:04;4.20;;;2.42;;
20154;SDS011;10238;49.556;10.956;2023-11-21T07:17:55;4.32;;;2.97;;
20154;SDS011;10238;49.556;10.956;2023-11-21T07:20:42;5.25;;;3.38;;
20154;SDS011;10238;49.556;10.956;2023-11-21T07:23:30;2.83;;;2.38;;
20154;SDS011;10238;49.556;10.956;2023-11-21T07:26:19;3.80;;;2.55;;
20154;SDS011;10238;49.556;10.956;2023-11-21T07:29:08;5.88;;;3.20;;
20154;SDS011;10238;49.556;10.956;2023-11-21T07:31:57;5.40;;;3.30;;
20154;SDS011;10238;49.556;10.956;2023-11-21T07:34:45;4.70;;;3.58;;
20154;SDS011;10238;49.556;10.956;2023-11-21T07:37:34;4.25;;;2.97;;
20154;SDS011;10238;49.556;10.956;2023-11-21T07:40:21;4.32;;;2.67;;
20154;SDS011;10238;49.556;10.956;2023-11-21T07:43:10;4.38;;;3.30;;
20154;SDS011;10238;49.556;10.956;2023-11-21T07:45:58;4.95;;;2.95;;
20154;SDS011;10238;49.556;10.956;2023-11-21T07:48:47;3.80;;;3.00;;
20154;SDS011;10238;49.556;10.956;2023-11-21T07:51:34;4.15;;;2.85;;
20154;SDS011;10238;49.556;10.956;2023-11-21T07:54:22;4.80;;;2.53;;
20154;SDS011;10238;49.556;10.956;2023-11-21T07:57:09;2.70;;;2.40;;
20154;SDS011;10238;49.556;10.956;2023-11-21T08:00:00;6.18;;;2.88;;
20154;SDS011;10238;49.556;10.956;2023-11-21T08:02:49;4.55;;;2.83;;
20154;SDS011;10238;49.556;10.956;2023-11-21T08:05:37;3.05;;;2.83;;
20154;SDS011;10238;49.556;10.956;2023-11-21T08:08:25;7.35;;;3.25;;
20154;SDS011;10238;49.556;10.956;2023-11-21T08:11:13;7.63;;;4.25;;
20154;SDS011;10238;49.556;10.956;2023-11-21T08:14:00;3.63;;;2.53;;
20154;SDS011;10238;49.556;10.956;2023-11-21T08:16:49;4.53;;;3.10;;
20154;SDS011;10238;49.556;10.956;2023-11-21T08:19:37;3.70;;;3.20;;
20154;SDS011;10238;49.556;10.956;2023-11-21T08:22:25;7.00;;;3.38;;
20154;SDS011;10238;49.556;10.956;2023-11-21T08:25:13;4.72;;;4.20;;
20154;SDS011;10238;49.556;10.956;2023-11-21T08:28:01;6.72;;;3.72;;
20154;SDS011;10238;49.556;10.956;2023-11-21T08:30:49;4.50;;;3.40;;
20154;SDS011;10238;49.556;10.956;2023-11-21T08:33:39;2.88;;;2.67;;
20154;SDS011;10238;49.556;10.956;2023-11-21T08:36:26;5.47;;;3.70;;
20154;SDS011;10238;49.556;10.956;2023-11-21T08:39:14;3.50;;;3.17;;
20154;SDS011;10238;49.556;10.956;2023-11-21T08:42:05;4.20;;;3.80;;
20154;SDS011;10238;49.556;10.956;2023-11-21T08:44:53;4.10;;;3.70;;
20154;SDS011;10238;49.556;10.956;2023-11-21T08:47:43;5.80;;;3.70;;
20154;SDS011;10238;49.556;10.956;2023-11-21T08:50:33;5.25;;;4.65;;
20154;SDS011;10238;49.556;10.956;2023-11-21T08:53:22;4.30;;;2.53;;
20154;SDS011;10238;49.556;10.956;2023-11-21T08:56:12;6.63;;;3.17;;
20154;SDS011;10238;49.556;10.956;2023-11-21T08:59:00;3.05;;;2.83;;
20154;SDS011;10238;49.556;10.956;2023-11-21T09:01:49;3.75;;;3.25;;
20154;SDS011;10238;49.556;10.956;2023-11-21T09:04:37;5.22;;;2.80;;
20154;SDS011;10238;49.556;10.956;2023-11-21T09:07:28;7.72;;;3.38;;
20154;SDS011;10238;49.556;10.956;2023-11-21T09:10:16;4.50;;;2.95;;
20154;SDS011;10238;49.556;10.956;2023-11-21T09:13:05;5.10;;;3.70;;
20154;SDS011;10238;49.556;10.956;2023-11-21T09:15:54;4.35;;;2.80;;
20154;SDS011;10238;49.556;10.956;2023-11-21T09:18:42;5.78;;;3.60;;
20154;SDS011;10238;49.556;10.956;2023-11-21T09:21:30;3.40;;;2.95;;
20154;SDS011;10238;49.556;10.956;2023-11-21T09:24:21;4.70;;;3.78;;
20154;SDS011;10238;49.556;10.956;2023-11-21T09:27:14;6.40;;;3.60;;
20154;SDS011;10238;49.556;10.956;2023-11-21T09:30:03;5.07;;;3.13;;
20154;SDS011;10238;49.556;10.956;2023-11-21T09:32:54;5.70;;;3.17;;
20154;SDS011;10238;49.556;10.956;2023-11-21T09:35:43;5.63;;;4.00;;
20154;SDS011;10238;49.556;10.956;2023-11-21T09:38:31;5.38;;;4.00;;
20154;SDS011;10238;49.556;10.956;2023-11-21T09:41:21;5.00;;;3.58;;
20154;SDS011;10238;49.556;10.956;2023-11-21T09:44:22;4.38;;;3.45;;
20154;SDS011;10238;49.556;10.956;2023-11-21T09:47:20;3.72;;;3.42;;
20154;SDS011;10238;49.556;10.956;2023-11-21T09:50:09;4.18;;;2.88;;
20154;SDS011;10238;49.556;10.956;2023-11-21T09:53:04;5.45;;;3.40;;
20154;SDS011;10238;49.556;10.956;2023-11-21T09:56:04;4.70;;;2.92;;
20154;SDS011;10238;49.556;10.956;2023-11-21T09:58:56;3.20;;;2.90;;
20154;SDS011;10238;49.556;10.956;2023-11-21T10:01:49;3.67;;;2.88;;
20154;SDS011;10238;49.556;10.956;2023-11-21T10:04:38;4.53;;;3.45;;
20154;SDS011;10238;49.556;10.956;2023-11-21T10:07:26;3.90;;;3.03;;
20154;SDS011;10238;49.556;10.956;2023-11-21T10:10:19;3.33;;;2.60;;
20154;SDS011;10238;49.556;10.956;2023-11-21T10:13:07;5.03;;;3.25;;
20154;SDS011;10238;49.556;10.956;2023-11-21T10:16:04;4.20;;;2.70;;
20154;SDS011;10238;49.556;10.956;2023-11-21T10:18:57;7.35;;;3.53;;
20154;SDS011;10238;49.556;10.956;2023-11-21T10:21:56;3.20;;;2.45;;
20154;SDS011;10238;49.556;10.956;2023-11-21T10:24:46;2.85;;;2.63;;
20154;SDS011;10238;49.556;10.956;2023-11-21T10:30:28;4.03;;;2.78;;
20154;SDS011;10238;49.556;10.956;2023-11-21T10:33:28;3.42;;;2.40;;
20154;SDS011;10238;49.556;10.956;2023-11-21T10:36:22;3.22;;;2.83;;
20154;SDS011;10238;49.556;10.956;2023-11-21T10:39:13;2.55;;;2.35;;
20154;SDS011;10238;49.556;10.956;2023-11-21T10:42:04;2.38;;;2.17;;
20154;SDS011;10238;49.556;10.956;2023-11-21T10:44:55;2.60;;;2.40;;
20154;SDS011;10238;49.556;10.956;2023-11-21T10:47:44;2.45;;;2.25;;
20154;SDS011;10238;49.556;10.956;2023-11-21T10:53:42;4.13;;;2.90;;
20154;SDS011;10238;49.556;10.956;2023-11-21T10:56:54;2.65;;;2.45;;
20154;SDS011;10238;49.556;10.956;2023-11-21T10:59:47;4.07;;;3.08;;
20154;SDS011;10238;49.556;10.956;2023-11-21T11:02:36;3.20;;;2.90;;
20154;SDS011;10238;49.556;10.956;2023-11-21T11:05:25;4.53;;;3.10;;
20154;SDS011;10238;49.556;10.956;2023-11-21T11:08:17;3.42;;;2.88;;
20154;SDS011;10238;49.556;10.956;2023-11-21T11:11:13;2.65;;;2.45;;
20154;SDS011;10238;49.556;10.956;2023-11-21T11:14:01;3.50;;;2.58;;
20154;SDS011;10238;49.556;10.956;2023-11-21T11:16:48;3.15;;;2.28;;
20154;SDS011;10238;49.556;10.956;2023-11-21T11:19:36;2.50;;;2.30;;
20154;SDS011;10238;49.556;10.956;2023-11-21T11:22:29;4.93;;;2.63;;
20154;SDS011;10238;49.556;10.956;2023-11-21T11:25:33;2.85;;;2.30;;
20154;SDS011;10238;49.556;10.956;2023-11-21T11:28:42;2.35;;;2.15;;
20154;SDS011;10238;49.556;10.956;2023-11-21T11:31:40;3.60;;;2.35;;
20154;SDS011;10238;49.556;10.956;2023-11-21T11:34:44;3.40;;;2.15;;
20154;SDS011;10238;49.556;10.956;2023-11-21T11:37:40;2.63;;;2.33;;
20154;SDS011;10238;49.556;10.956;2023-11-21T11:40:39;4.18;;;2.45;;
20154;SDS011;10238;49.556;10.956;2023-11-21T11:43:28;8.85;;;4.32;;
20154;SDS011;10238;49.556;10.956;2023-11-21T11:46:18;3.25;;;2.60;;
20154;SDS011;10238;49.556;10.956;2023-11-21T11:49:07;4.00;;;3.13;;
20154;SDS011;10238;49.556;10.956;2023-11-21T11:55:21;3.13;;;2.83;;
20154;SDS011;10238;49.556;10.956;2023-11-21T11:58:12;3.55;;;3.10;;
20154;SDS011;10238;49.556;10.956;2023-11-21T12:00:59;3.13;;;2.88;;
20154;SDS011;10238;49.556;10.956;2023-11-21T12:07:17;4.15;;;3.75;;
20154;SDS011;10238;49.556;10.956;2023-11-21T12:10:08;4.60;;;4.30;;
20154;SDS011;10238;49.556;10.956;2023-11-21T12:13:00;5.00;;;4.70;;
20154;SDS011;10238;49.556;10.956;2023-11-21T12:15:54;5.40;;;4.95;;
20154;SDS011;10238;49.556;10.956;2023-11-21T12:18:42;5.55;;;4.80;;
20154;SDS011;10238;49.556;10.956;2023-11-21T12:21:30;5.57;;;4.88;;
20154;SDS011;10238;49.556;10.956;2023-11-21T12:24:19;5.72;;;5.30;;
20154;SDS011;10238;49.556;10.956;2023-11-21T12:27:09;5.32;;;5.00;;
20154;SDS011;10238;49.556;10.956;2023-11-21T12:29:57;6.25;;;5.72;;
20154;SDS011;10238;49.556;10.956;2023-11-21T12:32:47;5.60;;;5.20;;
20154;SDS011;10238;49.556;10.956;2023-11-21T12:35:38;5.50;;;5.10;;
20154;SDS011;10238;49.556;10.956;2023-11-21T12:38:29;6.18;;;5.55;;
20154;SDS011;10238;49.556;10.956;2023-11-21T12:41:21;5.25;;;4.75;;
20154;SDS011;10238;49.556;10.956;2023-11-21T12:44:12;25.63;;;10.68;;
20154;SDS011;10238;49.556;10.956;2023-11-21T12:47:01;9.30;;;6.68;;
20154;SDS011;10238;49.556;10.956;2023-11-21T12:49:50;10.35;;;6.75;;
20154;SDS011;10238;49.556;10.956;2023-11-21T12:52:38;8.20;;;4.85;;
20154;SDS011;10238;49.556;10.956;2023-11-21T12:55:30;4.95;;;4.03;;
20154;SDS011;10238;49.556;10.956;2023-11-21T12:58:20;7.38;;;4.70;;
20154;SDS011;10238;49.556;10.956;2023-11-21T13:01:11;6.53;;;4.03;;
20154;SDS011;10238;49.556;10.956;2023-11-21T13:04:04;6.63;;;3.75;;
20154;SDS011;10238;49.556;10.956;2023-11-21T13:07:03;4.55;;;3.70;;
20154;SDS011;10238;49.556;10.956;2023-11-21T13:09:58;5.53;;;3.80;;
20154;SDS011;10238;49.556;10.956;2023-11-21T13:12:52;5.03;;;2.92;;
20154;SDS011;10238;49.556;10.956;2023-11-21T13:15:47;5.53;;;3.75;;
20154;SDS011;10238;49.556;10.956;2023-11-21T13:21:25;5.22;;;2.75;;
20154;SDS011;10238;49.556;10.956;2023-11-21T13:24:14;6.25;;;3.00;;
20154;SDS011;10238;49.556;10.956;2023-11-21T13:27:03;2.85;;;2.25;;
20154;SDS011;10238;49.556;10.956;2023-11-21T13:29:52;10.00;;;5.28;;
20154;SDS011;10238;49.556;10.956;2023-11-21T13:32:40;8.50;;;4.50;;
20154;SDS011;10238;49.556;10.956;2023-11-21T13:35:28;4.97;;;3.25;;
20154;SDS011;10238;49.556;10.956;2023-11-21T13:38:18;6.20;;;3.00;;
20154;SDS011;10238;49.556;10.956;2023-11-21T13:41:10;3.92;;;2.33;;
20154;SDS011;10238;49.556;10.956;2023-11-21T13:44:00;6.82;;;3.03;;
20154;SDS011;10238;49.556;10.956;2023-11-21T13:47:01;7.82;;;3.15;;
20154;SDS011;10238;49.556;10.956;2023-11-21T13:49:51;5.32;;;2.67;;
20154;SDS011;10238;49.556;10.956;2023-11-21T13:52:39;3.83;;;2.50;;
20154;SDS011;10238;49.556;10.956;2023-11-21T13:55:27;3.10;;;2.17;;
20154;SDS011;10238;49.556;10.956;2023-11-21T13:58:16;3.33;;;2.60;;
20154;SDS011;10238;49.556;10.956;2023-11-21T14:01:08;3.85;;;3.20;;
20154;SDS011;10238;49.556;10.956;2023-11-21T14:04:08;4.35;;;2.50;;
20154;SDS011;10238;49.556;10.956;2023-11-21T14:07:04;4.05;;;2.40;;
20154;SDS011;10238;49.556;10.956;2023-11-21T14:10:08;2.80;;;2.30;;
20154;SDS011;10238;49.556;10.956;2023-11-21T14:12:59;5.30;;;2.97;;
20154;SDS011;10238;49.556;10.956;2023-11-21T14:15:48;6.13;;;2.42;;
20154;SDS011;10238;49.556;10.956;2023-11-21T14:18:44;5.15;;;2.40;;
20154;SDS011;10238;49.556;10.956;2023-11-21T14:21:41;3.75;;;2.30;;
20154;SDS011;10238;49.556;10.956;2023-11-21T14:24:30;5.13;;;2.58;;
20154;SDS011;10238;49.556;10.956;2023-11-21T14:27:19;5.10;;;2.30;;
20154;SDS011;10238;49.556;10.956;2023-11-21T14:30:07;6.10;;;2.53;;
20154;SDS011;10238;49.556;10.956;2023-11-21T14:32:59;5.47;;;2.30;;
20154;SDS011;10238;49.556;10.956;2023-11-21T14:35:47;4.85;;;2.17;;
20154;SDS011;10238;49.556;10.956;2023-11-21T14:38:36;3.38;;;2.22;;
20154;SDS011;10238;49.556;10.956;2023-11-21T14:41:25;3.15;;;2.30;;
20154;SDS011;10238;49.556;10.956;2023-11-21T14:44:13;3.38;;;2.22;;
20154;SDS011;10238;49.556;10.956;2023-11-21T14:47:01;5.22;;;2.28;;
20154;SDS011;10238;49.556;10.956;2023-11-21T14:49:54;4.28;;;2.35;;
20154;SDS011;10238;49.556;10.956;2023-11-21T14:52:45;6.10;;;2.33;;
20154;SDS011;10238;49.556;10.956;2023-11-21T14:55:41;4.03;;;2.30;;
20154;SDS011;10238;49.556;10.956;2023-11-21T14:58:43;6.38;;;2.53;;
20154;SDS011;10238;49.556;10.956;2023-11-21T15:01:30;6.00;;;2.33;;
20154;SDS011;10238;49.556;10.956;2023-11-21T15:04:30;4.05;;;2.65;;
20154;SDS011;10238;49.556;10.956;2023-11-21T15:07:23;4.43;;;2.63;;
20154;SDS011;10238;49.556;10.956;2023-11-21T15:10:12;5.65;;;2.22;;
20154;SDS011;10238;49.556;10.956;2023-11-21T15:13:02;8.30;;;2.70;;
20154;SDS011;10238;49.556;10.956;2023-11-21T15:15:48;5.68;;;2.42;;
20154;SDS011;10238;49.556;10.956;2023-11-21T15:18:38;5.93;;;2.30;;
20154;SDS011;10238;49.556;10.956;2023-11-21T15:21:25;4.30;;;2.72;;
20154;SDS011;10238;49.556;10.956;2023-11-21T15:24:14;4.80;;;2.67;;
20154;SDS011;10238;49.556;10.956;2023-11-21T15:27:02;6.03;;;2.40;;
20154;SDS011;10238;49.556;10.956;2023-11-21T15:29:51;5.10;;;2.33;;
20154;SDS011;10238;49.556;10.956;2023-11-21T15:32:39;5.85;;;2.55;;
20154;SDS011;10238;49.556;10.956;2023-11-21T15:35:27;4.55;;;2.30;;
20154;SDS011;10238;49.556;10.956;2023-11-21T15:38:14;4.72;;;2.58;;
20154;SDS011;10238;49.556;10.956;2023-11-21T15:41:04;4.72;;;2.25;;
20154;SDS011;10238;49.556;10.956;2023-11-21T15:43:54;5.85;;;2.50;;
20154;SDS011;10238;49.556;10.956;2023-11-21T15:46:42;6.75;;;2.80;;
20154;SDS011;10238;49.556;10.956;2023-11-21T15:49:30;4.07;;;2.88;;
20154;SDS011;10238;49.556;10.956;2023-11-21T15:52:21;3.90;;;2.47;;
20154;SDS011;10238;49.556;10.956;2023-11-21T15:55:09;9.82;;;4.55;;
20154;SDS011;10238;49.556;10.956;2023-11-21T15:58:00;9.18;;;3.63;;
20154;SDS011;10238;49.556;10.956;2023-11-21T16:00:50;6.93;;;3.20;;
20154;SDS011;10238;49.556;10.956;2023-11-21T16:03:38;6.20;;;3.30;;
20154;SDS011;10238;49.556;10.956;2023-11-21T16:06:26;6.70;;;2.92;;
20154;SDS011;10238;49.556;10.956;2023-11-21T16:09:16;8.63;;;3.20;;
20154;SDS011;10238;49.556;10.956;2023-11-21T16:12:10;7.25;;;3.05;;
20154;SDS011;10238;49.556;10.956;2023-11-21T16:14:59;8.40;;;3.47;;
20154;SDS011;10238;49.556;10.956;2023-11-21T16:17:53;9.23;;;3.50;;
20154;SDS011;10238;49.556;10.956;2023-11-21T16:20:41;9.02;;;3.47;;
20154;SDS011;10238;49.556;10.956;2023-11-21T16:23:29;8.68;;;4.30;;
20154;SDS011;10238;49.556;10.956;2023-11-21T16:26:17;8.20;;;4.47;;
20154;SDS011;10238;49.556;10.956;2023-11-21T16:29:04;5.57;;;3.40;;
20154;SDS011;10238;49.556;10.956;2023-11-21T16:31:54;8.48;;;4.03;;
20154;SDS011;10238;49.556;10.956;2023-11-21T16:34:42;8.60;;;3.60;;
20154;SDS011;10238;49.556;10.956;2023-11-21T16:37:30;9.38;;;3.78;;
20154;SDS011;10238;49.556;10.956;2023-11-21T16:40:18;7.20;;;4.25;;
20154;SDS011;10238;49.556;10.956;2023-11-21T16:43:07;5.03;;;4.07;;
20154;SDS011;10238;49.556;10.956;2023-11-21T16:45:56;6.60;;;4.07;;
20154;SDS011;10238;49.556;10.956;2023-11-21T16:48:45;8.15;;;5.20;;
20154;SDS011;10238;49.556;10.956;2023-11-21T16:51:32;7.72;;;4.75;;
20154;SDS011;10238;49.556;10.956;2023-11-21T16:54:20;9.45;;;4.60;;
20154;SDS011;10238;49.556;10.956;2023-11-21T16:57:07;9.32;;;4.95;;
20154;SDS011;10238;49.556;10.956;2023-11-21T16:59:56;9.43;;;4.97;;
20154;SDS011;10238;49.556;10.956;2023-11-21T17:02:44;11.38;;;5.65;;